createdAt,value
2023-03-22T00:02:26.762Z,3.85
2023-03-22T00:04:53.945Z,1.38
2023-03-22T00:07:20.930Z,1.10
2023-03-22T00:09:47.764Z,1.25
2023-03-22T00:12:14.690Z,0.60
2023-03-22T00:14:41.764Z,0.95
2023-03-22T00:17:08.607Z,0.88
2023-03-22T00:19:35.445Z,0.52
2023-03-22T00:22:03.757Z,0.90
2023-03-22T00:24:30.695Z,0.90
2023-03-22T00:26:58.873Z,0.85
2023-03-22T00:29:26.055Z,1.00
2023-03-22T00:31:54.592Z,1.67
2023-03-22T00:34:21.496Z,0.30
2023-03-22T00:36:48.775Z,0.73
2023-03-22T00:39:16.293Z,1.13
2023-03-22T00:41:43.235Z,0.50
2023-03-22T00:44:10.072Z,1.27
2023-03-22T00:46:37.794Z,1.42
2023-03-22T00:49:05.060Z,0.22
2023-03-22T00:51:32.060Z,0.45
2023-03-22T00:53:58.905Z,0.90
2023-03-22T00:56:29.199Z,0.50
2023-03-22T00:58:56.761Z,0.93
2023-03-22T01:01:23.762Z,0.75
2023-03-22T01:03:51.030Z,0.13
2023-03-22T01:06:18.837Z,0.45
2023-03-22T01:08:45.762Z,1.00
2023-03-22T01:11:12.987Z,1.48
2023-03-22T01:13:42.156Z,0.73
2023-03-22T01:16:09.926Z,0.65
2023-03-22T01:18:37.131Z,0.90
2023-03-22T01:21:04.675Z,1.17
2023-03-22T01:23:32.192Z,0.22
2023-03-22T01:25:59.480Z,0.52
2023-03-22T01:28:27.262Z,0.55
2023-03-22T01:30:55.178Z,0.57
2023-03-22T01:33:22.436Z,0.52
2023-03-22T01:35:49.356Z,0.20
2023-03-22T01:38:16.287Z,0.52
2023-03-22T01:40:43.148Z,0.65
2023-03-22T01:43:17.411Z,0.25
2023-03-22T01:45:51.792Z,0.38
2023-03-22T01:48:22.288Z,0.85
2023-03-22T01:51:03.619Z,1.17
2023-03-22T01:53:34.675Z,0.52
2023-03-22T01:58:29.224Z,0.77
2023-03-22T02:00:56.725Z,0.15
2023-03-22T02:03:33.983Z,0.50
2023-03-22T02:06:00.929Z,0.13
2023-03-22T02:08:28.758Z,0.50
2023-03-22T02:10:55.585Z,0.65
2023-03-22T02:13:42.659Z,0.35
2023-03-22T02:16:27.589Z,0.63
2023-03-22T02:19:23.131Z,0.13
2023-03-22T02:22:14.732Z,0.28
2023-03-22T02:25:09.115Z,1.20
2023-03-22T02:27:51.258Z,0.10
2023-03-22T02:30:44.815Z,1.88
2023-03-22T02:33:36.086Z,0.15
2023-03-22T02:38:54.059Z,0.10
2023-03-22T02:41:29.169Z,0.15
2023-03-22T02:44:14.917Z,0.10
2023-03-22T02:46:58.675Z,0.20
2023-03-22T02:49:37.842Z,0.10
2023-03-22T02:52:18.016Z,0.10
2023-03-22T02:54:53.645Z,0.13
2023-03-22T02:57:42.944Z,0.10
2023-03-22T03:00:13.365Z,0.10
2023-03-22T03:02:47.231Z,0.10
2023-03-22T03:05:16.444Z,0.10
2023-03-22T03:07:51.333Z,0.10
2023-03-22T03:10:20.427Z,0.10
2023-03-22T03:12:47.274Z,0.10
2023-03-22T03:15:20.177Z,0.10
2023-03-22T03:17:49.904Z,0.15
2023-03-22T03:20:34.641Z,0.10
2023-03-22T03:23:28.910Z,0.10
2023-03-22T03:26:22.760Z,0.20
2023-03-22T03:29:10.053Z,0.00
2023-03-22T03:31:50.931Z,0.10
2023-03-22T03:34:42.359Z,0.43
2023-03-22T03:39:49.327Z,0.40
2023-03-22T03:42:18.003Z,0.10
2023-03-22T03:44:45.740Z,0.10
2023-03-22T03:47:13.433Z,0.15
2023-03-22T03:49:40.430Z,1.00
2023-03-22T03:52:07.368Z,0.10
2023-03-22T03:54:34.613Z,0.10
2023-03-22T03:57:03.963Z,0.90
2023-03-22T03:59:31.033Z,0.47
2023-03-22T04:01:57.902Z,0.30
2023-03-22T04:04:27.785Z,0.63
2023-03-22T04:06:59.780Z,0.10
2023-03-22T04:09:29.092Z,0.32
2023-03-22T04:11:57.063Z,0.10
2023-03-22T04:14:24.963Z,0.10
2023-03-22T04:16:52.028Z,0.52
2023-03-22T04:19:19.453Z,0.55
2023-03-22T04:21:46.332Z,0.40
2023-03-22T04:24:13.918Z,1.17
2023-03-22T04:26:41.527Z,0.63
2023-03-22T04:29:08.339Z,1.15
2023-03-22T04:31:37.081Z,0.47
2023-03-22T04:34:06.040Z,1.55
2023-03-22T04:36:36.660Z,0.45
2023-03-22T04:39:06.376Z,1.00
2023-03-22T04:41:34.228Z,1.52
2023-03-22T04:44:03.552Z,1.38
2023-03-22T04:46:36.262Z,0.55
2023-03-22T04:49:03.805Z,2.03
2023-03-22T04:51:32.217Z,0.75
2023-03-22T04:53:59.558Z,0.77
2023-03-22T04:56:26.375Z,0.43
2023-03-22T04:58:53.743Z,0.60
2023-03-22T05:01:20.965Z,0.50
2023-03-22T05:03:48.071Z,0.68
2023-03-22T05:06:15.552Z,1.17
2023-03-22T05:08:42.813Z,1.77
2023-03-22T05:11:15.581Z,1.77
2023-03-22T05:13:43.276Z,0.75
2023-03-22T05:16:11.068Z,1.58
2023-03-22T05:18:42.586Z,1.00
2023-03-22T05:21:15.864Z,2.15
2023-03-22T05:23:44.239Z,1.50
2023-03-22T05:26:11.739Z,1.15
2023-03-22T05:28:39.711Z,4.63
2023-03-22T05:31:08.548Z,2.13
2023-03-22T05:33:35.497Z,6.18
2023-03-22T05:36:02.468Z,4.72
2023-03-22T05:38:29.369Z,5.35
2023-03-22T05:40:56.316Z,13.25
2023-03-22T05:43:23.170Z,6.35
2023-03-22T05:45:50.062Z,3.78
2023-03-22T05:48:17.415Z,4.00
2023-03-22T05:50:44.385Z,5.65
2023-03-22T05:53:11.897Z,5.82
2023-03-22T05:55:38.769Z,6.85
2023-03-22T05:58:05.776Z,6.80
2023-03-22T06:00:32.657Z,3.55
2023-03-22T06:03:03.873Z,4.45
2023-03-22T06:05:32.151Z,2.58
2023-03-22T06:08:00.589Z,2.17
2023-03-22T06:10:28.974Z,6.35
2023-03-22T06:12:56.052Z,6.93
2023-03-22T06:15:22.974Z,10.52
2023-03-22T06:17:49.927Z,4.25
2023-03-22T06:20:16.879Z,7.15
2023-03-22T06:22:43.856Z,8.88
2023-03-22T06:25:11.626Z,9.38
2023-03-22T06:27:38.779Z,7.43
2023-03-22T06:30:06.544Z,8.43
2023-03-22T06:32:33.595Z,16.38
2023-03-22T06:35:00.513Z,8.48
2023-03-22T06:37:27.405Z,9.88
2023-03-22T06:39:54.536Z,7.90
2023-03-22T06:42:21.778Z,5.53
2023-03-22T06:44:48.784Z,6.32
2023-03-22T06:47:16.011Z,5.82
2023-03-22T06:49:42.911Z,9.82
2023-03-22T06:52:09.882Z,5.50
2023-03-22T06:54:36.769Z,4.80
2023-03-22T06:57:03.993Z,6.03
2023-03-22T06:59:30.907Z,4.47
2023-03-22T07:01:57.813Z,5.70
2023-03-22T07:04:25.434Z,4.00
2023-03-22T07:06:52.505Z,4.65
2023-03-22T07:09:19.919Z,2.78
2023-03-22T07:11:47.150Z,4.97
2023-03-22T07:14:14.082Z,2.80
2023-03-22T07:16:41.048Z,4.00
2023-03-22T07:19:07.939Z,4.45
2023-03-22T07:21:35.053Z,3.80
2023-03-22T07:24:02.194Z,13.30
2023-03-22T07:26:30.821Z,12.85
2023-03-22T07:28:58.587Z,7.47
2023-03-22T07:31:25.629Z,19.77
2023-03-22T07:33:52.539Z,11.95
2023-03-22T07:36:24.029Z,9.38
2023-03-22T07:38:52.061Z,7.18
2023-03-22T07:41:19.176Z,10.75
2023-03-22T07:43:55.222Z,10.85
2023-03-22T07:46:23.943Z,8.35
2023-03-22T07:48:51.111Z,6.82
2023-03-22T07:51:19.537Z,6.93
2023-03-22T07:53:46.728Z,6.18
2023-03-22T07:56:13.935Z,4.60
2023-03-22T07:58:41.179Z,5.90
2023-03-22T08:01:09.250Z,5.70
2023-03-22T08:03:38.025Z,7.18
2023-03-22T08:06:08.119Z,5.53
2023-03-22T08:08:37.181Z,4.93
2023-03-22T08:11:08.821Z,6.78
2023-03-22T08:13:36.081Z,7.60
2023-03-22T08:16:03.487Z,5.30
2023-03-22T08:18:35.487Z,6.22
2023-03-22T08:21:04.742Z,7.55
2023-03-22T08:23:41.483Z,6.45
2023-03-22T08:26:11.202Z,6.32
2023-03-22T08:28:38.452Z,3.63
2023-03-22T08:31:15.442Z,5.32
2023-03-22T08:33:44.696Z,5.22
2023-03-22T08:36:15.143Z,6.30
2023-03-22T08:38:45.601Z,4.57
2023-03-22T08:41:13.916Z,6.60
2023-03-22T08:43:40.933Z,5.22
2023-03-22T08:46:09.008Z,4.78
2023-03-22T08:48:38.243Z,6.53
2023-03-22T08:51:06.941Z,5.65
2023-03-22T08:53:34.368Z,5.05
2023-03-22T08:56:02.536Z,6.00
2023-03-22T08:58:29.710Z,5.68
2023-03-22T09:00:56.741Z,4.68
2023-03-22T09:03:25.381Z,6.20
2023-03-22T09:05:53.162Z,5.55
2023-03-22T09:08:21.026Z,6.88
2023-03-22T09:10:52.234Z,5.10
2023-03-22T09:13:20.499Z,3.85
2023-03-22T09:15:48.304Z,3.78
2023-03-22T09:18:16.523Z,3.83
2023-03-22T09:20:46.136Z,5.60
2023-03-22T09:23:15.839Z,4.47
2023-03-22T09:25:46.903Z,7.20
2023-03-22T09:30:41.787Z,7.53
2023-03-22T09:33:09.393Z,4.78
2023-03-22T09:35:40.613Z,6.05
2023-03-22T09:38:07.961Z,3.58
2023-03-22T09:40:38.077Z,5.40
2023-03-22T09:43:09.462Z,5.72
2023-03-22T09:45:42.247Z,4.80
2023-03-22T09:48:19.077Z,3.92
2023-03-22T09:50:50.209Z,4.40
2023-03-22T09:56:06.719Z,6.15
2023-03-22T09:58:45.159Z,4.97
2023-03-22T10:01:32.215Z,5.35
2023-03-22T10:04:05.400Z,4.95
2023-03-22T10:06:33.052Z,6.63
2023-03-22T10:09:05.655Z,5.07
2023-03-22T10:11:35.644Z,4.53
2023-03-22T10:14:21.542Z,3.58
2023-03-22T10:16:54.172Z,4.85
2023-03-22T10:19:44.040Z,4.97
2023-03-22T10:22:16.495Z,4.25
2023-03-22T10:24:47.106Z,5.20
2023-03-22T10:27:19.379Z,3.35
2023-03-22T10:29:51.815Z,6.72
2023-03-22T10:32:54.733Z,3.10
2023-03-22T10:35:23.880Z,3.05
2023-03-22T10:37:53.467Z,2.78
2023-03-22T10:40:25.739Z,3.70
2023-03-22T10:43:00.278Z,3.88
2023-03-22T10:45:28.615Z,5.20
2023-03-22T10:48:03.198Z,3.45
2023-03-22T10:50:34.895Z,4.82
2023-03-22T10:53:06.673Z,5.45
2023-03-22T10:55:39.855Z,3.70
2023-03-22T10:58:17.574Z,4.85
2023-03-22T11:00:49.696Z,6.05
2023-03-22T11:03:35.541Z,3.92
2023-03-22T11:06:15.603Z,3.47
2023-03-22T11:08:42.615Z,5.05
2023-03-22T11:11:29.017Z,5.32
2023-03-22T11:13:58.960Z,5.45
2023-03-22T11:16:26.601Z,3.22
2023-03-22T11:18:55.828Z,5.15
2023-03-22T11:21:31.516Z,7.43
2023-03-22T11:24:07.160Z,6.30
2023-03-22T11:26:40.756Z,4.43
2023-03-22T11:29:14.608Z,5.07
2023-03-22T11:31:59.373Z,4.00
2023-03-22T11:34:29.847Z,4.28
2023-03-22T11:37:01.119Z,4.30
2023-03-22T11:39:30.347Z,8.85
2023-03-22T11:42:04.235Z,11.05
2023-03-22T11:44:36.206Z,24.90
2023-03-22T11:47:04.754Z,22.25
2023-03-22T11:49:40.251Z,15.27
2023-03-22T11:52:10.853Z,7.03
2023-03-22T11:54:39.773Z,4.90
2023-03-22T11:57:13.802Z,38.08
2023-03-22T11:59:49.043Z,18.02
2023-03-22T12:02:30.007Z,6.53
2023-03-22T12:05:09.561Z,9.85
2023-03-22T12:07:38.041Z,12.00
2023-03-22T12:10:06.604Z,13.80
2023-03-22T12:12:40.663Z,33.95
2023-03-22T12:15:15.751Z,10.10
2023-03-22T12:17:55.174Z,11.52
2023-03-22T12:20:46.580Z,15.70
2023-03-22T12:23:19.383Z,11.70
2023-03-22T12:26:12.176Z,8.02
2023-03-22T12:28:46.507Z,7.97
2023-03-22T12:31:18.035Z,7.43
2023-03-22T12:33:49.791Z,8.35
2023-03-22T12:36:19.715Z,24.17
2023-03-22T12:38:54.610Z,10.73
2023-03-22T12:41:37.993Z,14.02
2023-03-22T12:44:28.481Z,10.82
2023-03-22T12:47:04.099Z,7.97
2023-03-22T12:49:36.848Z,6.97
2023-03-22T12:52:19.831Z,8.27
2023-03-22T12:54:49.811Z,11.85
2023-03-22T12:57:17.745Z,11.48
2023-03-22T12:59:49.024Z,8.30
2023-03-22T13:02:25.424Z,8.30
2023-03-22T13:04:55.731Z,2.80
2023-03-22T13:07:31.418Z,12.63
2023-03-22T13:10:00.475Z,7.30
2023-03-22T13:12:30.905Z,5.47
2023-03-22T13:15:01.401Z,6.20
2023-03-22T13:17:28.410Z,5.93
2023-03-22T13:20:24.178Z,8.90
2023-03-22T13:22:51.313Z,24.67
2023-03-22T13:25:19.352Z,18.80
2023-03-22T13:27:46.416Z,21.67
2023-03-22T13:30:22.437Z,14.25
2023-03-22T13:33:09.195Z,5.75
2023-03-22T13:35:48.954Z,8.10
2023-03-22T13:38:29.919Z,9.52
2023-03-22T13:41:00.140Z,8.48
2023-03-22T13:43:43.832Z,6.25
2023-03-22T13:46:28.786Z,22.98
2023-03-22T13:49:01.824Z,27.85
2023-03-22T13:51:32.604Z,13.50
2023-03-22T13:54:10.613Z,8.30
2023-03-22T13:57:01.184Z,6.60
2023-03-22T13:59:28.259Z,8.43
2023-03-22T14:02:34.389Z,12.10
2023-03-22T14:05:17.930Z,6.63
2023-03-22T14:07:53.263Z,14.07
2023-03-22T14:10:44.597Z,11.10
2023-03-22T14:13:29.242Z,4.50
2023-03-22T14:16:18.861Z,14.07
2023-03-22T14:18:49.032Z,7.03
2023-03-22T14:21:23.888Z,12.55
2023-03-22T14:54:22.668Z,16.48
2023-03-22T14:56:50.502Z,5.68
2023-03-22T14:59:21.523Z,5.35
2023-03-22T15:02:00.198Z,5.75
2023-03-22T15:04:27.837Z,4.13
2023-03-22T15:07:02.691Z,8.27
2023-03-22T15:09:30.351Z,4.35
2023-03-22T15:12:02.525Z,6.20
2023-03-22T15:14:34.320Z,6.93
2023-03-22T15:17:02.232Z,6.57
2023-03-22T15:19:35.597Z,7.57
2023-03-22T15:22:13.131Z,9.25
2023-03-22T15:24:49.032Z,10.50
2023-03-22T15:27:18.598Z,4.43
2023-03-22T15:29:46.338Z,8.70
2023-03-22T15:32:18.725Z,8.43
2023-03-22T15:34:47.559Z,7.40
2023-03-22T15:37:32.869Z,10.38
2023-03-22T15:40:05.880Z,6.75
2023-03-22T15:42:43.443Z,9.93
2023-03-22T15:45:19.884Z,9.15
2023-03-22T15:48:10.037Z,7.90
2023-03-22T15:50:43.003Z,13.55
2023-03-22T15:53:32.533Z,10.43
2023-03-22T15:56:00.098Z,5.13
2023-03-22T15:58:30.975Z,5.28
2023-03-22T16:01:22.617Z,8.07
2023-03-22T16:03:59.750Z,4.57
2023-03-22T16:06:29.299Z,6.03
2023-03-22T16:08:57.256Z,22.38
2023-03-22T16:11:27.808Z,4.55
2023-03-22T16:13:56.881Z,7.85
2023-03-22T16:16:27.121Z,10.10
2023-03-22T16:18:56.233Z,5.67
2023-03-22T16:21:32.766Z,6.78
2023-03-22T16:24:02.586Z,12.93
2023-03-22T16:26:30.726Z,8.95
2023-03-22T16:28:58.827Z,13.43
2023-03-22T16:31:27.432Z,14.75
2023-03-22T16:33:55.235Z,21.83
2023-03-22T16:36:24.698Z,7.93
2023-03-22T16:38:52.921Z,25.92
2023-03-22T16:41:29.584Z,31.58
2023-03-22T16:43:59.397Z,87.97
2023-03-22T16:46:28.661Z,28.85
2023-03-22T16:48:56.108Z,13.65
2023-03-22T16:51:30.950Z,13.25
2023-03-22T16:53:59.363Z,23.77
2023-03-22T16:56:31.140Z,11.88
2023-03-22T16:58:59.495Z,18.27
2023-03-22T17:01:27.775Z,12.63
2023-03-22T17:03:55.229Z,9.98
2023-03-22T17:06:26.916Z,19.13
2023-03-22T17:08:54.098Z,17.25
2023-03-22T17:11:24.523Z,16.42
2023-03-22T17:13:54.014Z,9.82
2023-03-22T17:16:21.992Z,13.63
2023-03-22T17:18:50.473Z,15.40
2023-03-22T17:21:19.093Z,10.02
2023-03-22T17:23:48.722Z,14.93
2023-03-22T17:26:17.848Z,12.27
2023-03-22T17:28:45.639Z,15.23
2023-03-22T17:31:15.938Z,9.10
2023-03-22T17:33:43.121Z,17.63
2023-03-22T17:36:13.521Z,11.98
2023-03-22T17:38:45.972Z,10.57
2023-03-22T17:41:28.020Z,25.45
2023-03-22T17:43:55.191Z,8.60
2023-03-22T17:48:52.282Z,8.93
2023-03-22T17:51:19.420Z,6.68
2023-03-22T17:54:35.446Z,10.13
2023-03-22T17:56:55.920Z,10.90
2023-03-22T17:59:20.499Z,14.00
2023-03-22T18:01:47.536Z,23.38
2023-03-22T18:04:14.705Z,14.80
2023-03-22T18:06:43.841Z,11.48
2023-03-22T18:09:11.036Z,10.77
2023-03-22T18:11:38.479Z,11.13
2023-03-22T18:14:21.089Z,8.00
2023-03-22T18:16:52.701Z,10.68
2023-03-22T18:19:21.143Z,10.75
2023-03-22T18:21:56.755Z,8.57
2023-03-22T18:24:27.241Z,6.70
2023-03-22T18:27:10.585Z,6.40
2023-03-22T18:29:38.665Z,15.15
2023-03-22T18:32:17.258Z,8.70
2023-03-22T18:34:46.233Z,12.35
2023-03-22T18:37:15.302Z,8.25
2023-03-22T18:40:22.867Z,14.35
2023-03-22T18:42:45.606Z,10.43
2023-03-22T18:45:18.595Z,6.97
2023-03-22T18:47:45.800Z,7.57
2023-03-22T18:50:14.741Z,7.38
2023-03-22T18:54:26.083Z,6.50
2023-03-22T18:58:03.078Z,7.43
2023-03-22T19:00:30.388Z,4.82
2023-03-22T19:02:57.682Z,5.43
2023-03-22T19:05:25.904Z,17.02
2023-03-22T19:08:16.113Z,33.58
2023-03-22T19:10:41.052Z,22.67
2023-03-22T19:13:08.939Z,13.48
2023-03-22T19:15:46.800Z,16.10
2023-03-22T19:18:17.186Z,29.48
2023-03-22T19:20:54.526Z,30.25
2023-03-22T19:23:32.193Z,42.00
2023-03-22T19:25:59.383Z,25.95
2023-03-22T19:28:27.314Z,23.17
2023-03-22T19:30:57.021Z,26.55
2023-03-22T19:33:39.839Z,44.33
2023-03-22T19:36:12.037Z,37.25
2023-03-22T19:38:39.081Z,55.13
2023-03-22T19:43:40.938Z,46.92
2023-03-22T19:46:09.151Z,47.92
2023-03-22T19:48:36.814Z,49.83
2023-03-22T19:51:04.810Z,35.38
2023-03-22T19:54:17.152Z,34.95
2023-03-22T19:56:20.722Z,29.85
2023-03-22T19:58:49.503Z,27.75
2023-03-22T20:01:17.289Z,23.90
2023-03-22T20:03:45.414Z,31.73
2023-03-22T20:06:13.094Z,18.60
2023-03-22T20:08:41.300Z,20.58
2023-03-22T20:11:09.523Z,24.40
2023-03-22T20:13:42.382Z,19.98
2023-03-22T20:16:09.770Z,16.52
2023-03-22T20:18:37.496Z,25.88
2023-03-22T20:21:04.759Z,23.23
2023-03-22T20:23:32.949Z,28.88
2023-03-22T20:26:05.164Z,40.88
2023-03-22T20:28:34.908Z,36.20
2023-03-22T20:31:10.667Z,28.88
2023-03-22T20:33:38.715Z,29.33
2023-03-22T20:36:07.751Z,30.52
2023-03-22T20:38:35.300Z,23.88
2023-03-22T20:41:05.310Z,17.63
2023-03-22T20:43:33.234Z,27.58
2023-03-22T20:46:00.319Z,25.52
2023-03-22T20:48:27.478Z,31.30
2023-03-22T20:50:55.873Z,24.50
2023-03-22T20:53:23.135Z,17.55
2023-03-22T20:55:50.877Z,13.32
2023-03-22T20:58:19.038Z,15.23
2023-03-22T21:00:46.435Z,23.00
2023-03-22T21:03:13.924Z,23.83
2023-03-22T21:05:42.548Z,18.42
2023-03-22T21:08:11.437Z,22.80
2023-03-22T21:10:38.795Z,22.48
2023-03-22T21:13:06.263Z,28.38
2023-03-22T21:15:33.601Z,19.15
2023-03-22T21:18:00.804Z,18.33
2023-03-22T21:20:32.693Z,16.50
2023-03-22T21:23:00.149Z,12.18
2023-03-22T21:25:27.285Z,19.00
2023-03-22T21:27:54.493Z,16.10
2023-03-22T21:30:22.083Z,8.43
2023-03-22T21:32:49.784Z,11.27
2023-03-22T21:35:18.549Z,16.15
2023-03-22T21:37:45.878Z,17.75
2023-03-22T21:40:14.116Z,19.20
2023-03-22T21:42:46.955Z,13.45
2023-03-22T21:45:15.335Z,18.20
2023-03-22T21:47:44.268Z,10.27
2023-03-22T21:50:12.361Z,15.52
2023-03-22T21:52:39.577Z,15.43
2023-03-22T21:55:07.451Z,15.38
2023-03-22T21:57:34.644Z,17.77
2023-03-22T22:00:02.268Z,15.18
2023-03-22T22:02:30.838Z,10.02
2023-03-22T22:04:58.544Z,7.00
2023-03-22T22:07:26.004Z,6.60
2023-03-22T22:09:54.073Z,5.20
2023-03-22T22:12:22.577Z,10.30
2023-03-22T22:14:51.706Z,10.80
2023-03-22T22:17:22.107Z,5.75
2023-03-22T22:19:49.345Z,6.80
2023-03-22T22:22:17.419Z,10.98
2023-03-22T22:24:44.631Z,4.53
2023-03-22T22:27:12.044Z,5.80
2023-03-22T22:29:39.219Z,6.28
2023-03-22T22:32:08.593Z,4.05
2023-03-22T22:34:35.825Z,7.43
2023-03-22T22:37:03.251Z,5.05
2023-03-22T22:39:31.268Z,4.68
2023-03-22T22:41:58.514Z,4.20
2023-03-22T22:44:25.651Z,3.38
2023-03-22T22:46:53.186Z,6.00
2023-03-22T22:49:20.635Z,5.07
2023-03-22T22:51:47.711Z,4.50
2023-03-22T22:54:15.074Z,7.30
2023-03-22T22:56:42.386Z,7.70
2023-03-22T22:59:09.352Z,6.63
2023-03-22T23:01:36.473Z,3.83
2023-03-22T23:04:03.653Z,5.65
2023-03-22T23:06:30.798Z,3.55
2023-03-22T23:08:58.190Z,5.63
2023-03-22T23:11:26.621Z,12.07
2023-03-22T23:13:54.328Z,3.67
2023-03-22T23:16:24.401Z,2.90
2023-03-22T23:18:56.227Z,6.55
2023-03-22T23:21:34.291Z,2.50
2023-03-22T23:24:01.300Z,3.90
2023-03-22T23:26:28.446Z,4.20
2023-03-22T23:28:59.435Z,4.25
2023-03-22T23:31:30.559Z,3.03
2023-03-22T23:34:04.181Z,2.88
2023-03-22T23:36:32.979Z,8.07
2023-03-22T23:39:05.314Z,8.10
2023-03-22T23:41:36.440Z,11.13
2023-03-22T23:46:30.708Z,6.70
2023-03-22T23:49:00.590Z,7.75
2023-03-22T23:51:28.352Z,2.38
2023-03-22T23:53:55.542Z,6.45
2023-03-22T23:56:23.458Z,3.83
2023-03-22T23:58:52.040Z,5.28
